sensor_id;sensor_type;location;lat;lon;timestamp;pressure;altitude;pressure_sealevel;temperature;humidity
63907;BME280;50075;49.484;11.238;2022-07-30T00:01:11;97892.22;;;23.85;100.00
63907;BME280;50075;49.484;11.238;2022-07-30T00:03:37;97878.03;;;24.30;100.00
63907;BME280;50075;49.484;11.238;2022-07-30T00:06:02;97890.72;;;23.73;100.00
63907;BME280;50075;49.484;11.238;2022-07-30T00:08:28;97889.56;;;23.85;100.00
63907;BME280;50075;49.484;11.238;2022-07-30T00:10:53;97893.56;;;24.17;100.00
63907;BME280;50075;49.484;11.238;2022-07-30T00:13:19;97898.34;;;23.67;100.00
63907;BME280;50075;49.484;11.238;2022-07-30T00:15:44;97897.72;;;23.74;100.00
63907;BME280;50075;49.484;11.238;2022-07-30T00:18:11;97892.00;;;23.96;100.00
63907;BME280;50075;49.484;11.238;2022-07-30T00:20:37;97899.31;;;23.39;100.00
63907;BME280;50075;49.484;11.238;2022-07-30T00:23:05;97895.75;;;24.03;100.00
63907;BME280;50075;49.484;11.238;2022-07-30T00:25:31;97891.25;;;23.86;100.00
63907;BME280;50075;49.484;11.238;2022-07-30T00:27:57;97889.03;;;23.16;100.00
63907;BME280;50075;49.484;11.238;2022-07-30T00:30:23;97880.59;;;23.31;100.00
63907;BME280;50075;49.484;11.238;2022-07-30T00:32:48;97876.84;;;23.51;100.00
63907;BME280;50075;49.484;11.238;2022-07-30T00:35:14;97871.78;;;24.03;100.00
63907;BME280;50075;49.484;11.238;2022-07-30T00:37:40;97875.28;;;23.76;100.00
63907;BME280;50075;49.484;11.238;2022-07-30T00:40:07;97885.31;;;23.37;100.00
63907;BME280;50075;49.484;11.238;2022-07-30T00:42:43;97882.03;;;23.71;100.00
63907;BME280;50075;49.484;11.238;2022-07-30T00:45:10;97879.03;;;23.56;100.00
63907;BME280;50075;49.484;11.238;2022-07-30T00:47:37;97884.97;;;23.50;100.00
63907;BME280;50075;49.484;11.238;2022-07-30T00:50:04;97888.38;;;23.42;100.00
63907;BME280;50075;49.484;11.238;2022-07-30T00:52:30;97892.53;;;22.97;100.00
63907;BME280;50075;49.484;11.238;2022-07-30T00:54:57;97908.41;;;22.79;100.00
63907;BME280;50075;49.484;11.238;2022-07-30T00:57:22;97908.41;;;22.40;100.00
63907;BME280;50075;49.484;11.238;2022-07-30T00:59:48;97906.88;;;22.47;100.00
63907;BME280;50075;49.484;11.238;2022-07-30T01:02:13;97902.75;;;23.12;100.00
63907;BME280;50075;49.484;11.238;2022-07-30T01:04:38;97892.69;;;23.43;100.00
63907;BME280;50075;49.484;11.238;2022-07-30T01:07:04;97901.03;;;22.54;100.00
63907;BME280;50075;49.484;11.238;2022-07-30T01:09:30;97908.41;;;22.79;100.00
63907;BME280;50075;49.484;11.238;2022-07-30T01:11:55;97896.06;;;23.07;100.00
63907;BME280;50075;49.484;11.238;2022-07-30T01:14:20;97899.13;;;23.13;100.00
63907;BME280;50075;49.484;11.238;2022-07-30T01:16:46;97897.84;;;22.97;100.00
63907;BME280;50075;49.484;11.238;2022-07-30T01:19:24;97902.53;;;22.76;100.00
63907;BME280;50075;49.484;11.238;2022-07-30T01:24:55;97924.25;;;21.82;100.00
63907;BME280;50075;49.484;11.238;2022-07-30T01:27:24;97922.13;;;22.75;100.00
63907;BME280;50075;49.484;11.238;2022-07-30T01:29:52;97913.47;;;22.43;100.00
63907;BME280;50075;49.484;11.238;2022-07-30T01:32:20;97907.38;;;23.47;100.00
63907;BME280;50075;49.484;11.238;2022-07-30T01:34:48;97908.44;;;23.26;100.00
63907;BME280;50075;49.484;11.238;2022-07-30T01:37:15;97901.13;;;23.38;100.00
63907;BME280;50075;49.484;11.238;2022-07-30T01:39:42;97906.19;;;23.32;100.00
63907;BME280;50075;49.484;11.238;2022-07-30T01:42:10;97905.78;;;23.26;100.00
63907;BME280;50075;49.484;11.238;2022-07-30T01:44:39;97915.97;;;22.55;100.00
63907;BME280;50075;49.484;11.238;2022-07-30T01:47:08;97903.47;;;23.04;100.00
63907;BME280;50075;49.484;11.238;2022-07-30T01:49:36;97902.44;;;23.24;100.00
63907;BME280;50075;49.484;11.238;2022-07-30T01:52:04;97908.16;;;23.29;100.00
63907;BME280;50075;49.484;11.238;2022-07-30T01:54:30;97912.97;;;22.97;100.00
63907;BME280;50075;49.484;11.238;2022-07-30T01:56:58;97915.00;;;23.32;100.00
63907;BME280;50075;49.484;11.238;2022-07-30T01:59:27;97916.59;;;23.15;100.00
63907;BME280;50075;49.484;11.238;2022-07-30T02:01:52;97915.38;;;23.00;100.00
63907;BME280;50075;49.484;11.238;2022-07-30T02:04:18;97913.06;;;23.24;100.00
63907;BME280;50075;49.484;11.238;2022-07-30T02:06:58;97918.19;;;22.88;100.00
63907;BME280;50075;49.484;11.238;2022-07-30T02:09:30;97924.06;;;22.82;100.00
63907;BME280;50075;49.484;11.238;2022-07-30T02:11:58;97922.94;;;23.04;100.00
63907;BME280;50075;49.484;11.238;2022-07-30T02:14:56;97921.88;;;23.35;100.00
63907;BME280;50075;49.484;11.238;2022-07-30T02:17:29;97915.81;;;23.05;100.00
63907;BME280;50075;49.484;11.238;2022-07-30T02:19:57;97923.13;;;22.74;100.00
63907;BME280;50075;49.484;11.238;2022-07-30T02:22:25;97909.94;;;23.39;100.00
63907;BME280;50075;49.484;11.238;2022-07-30T02:24:52;97906.97;;;23.14;100.00
63907;BME280;50075;49.484;11.238;2022-07-30T02:27:27;97906.31;;;23.40;100.00
63907;BME280;50075;49.484;11.238;2022-07-30T02:29:56;97903.56;;;23.22;100.00
63907;BME280;50075;49.484;11.238;2022-07-30T02:32:24;97905.13;;;23.52;100.00
63907;BME280;50075;49.484;11.238;2022-07-30T02:34:54;97904.34;;;23.42;100.00
63907;BME280;50075;49.484;11.238;2022-07-30T02:37:20;97896.66;;;23.94;100.00
63907;BME280;50075;49.484;11.238;2022-07-30T02:39:48;97900.78;;;23.14;100.00
63907;BME280;50075;49.484;11.238;2022-07-30T02:42:15;97900.47;;;23.26;100.00
63907;BME280;50075;49.484;11.238;2022-07-30T02:44:43;97906.06;;;23.33;100.00
63907;BME280;50075;49.484;11.238;2022-07-30T02:47:11;97908.22;;;23.10;100.00
63907;BME280;50075;49.484;11.238;2022-07-30T02:49:41;97907.16;;;22.54;100.00
63907;BME280;50075;49.484;11.238;2022-07-30T02:52:10;97909.38;;;22.78;100.00
63907;BME280;50075;49.484;11.238;2022-07-30T02:54:38;97908.16;;;22.63;100.00
63907;BME280;50075;49.484;11.238;2022-07-30T02:57:07;97904.75;;;22.80;100.00
63907;BME280;50075;49.484;11.238;2022-07-30T02:59:35;97892.13;;;23.77;100.00
63907;BME280;50075;49.484;11.238;2022-07-30T03:02:02;97898.03;;;22.96;100.00
63907;BME280;50075;49.484;11.238;2022-07-30T03:04:29;97902.38;;;22.67;100.00
63907;BME280;50075;49.484;11.238;2022-07-30T03:06:56;97880.63;;;23.11;100.00
63907;BME280;50075;49.484;11.238;2022-07-30T03:09:23;97894.63;;;23.13;100.00
63907;BME280;50075;49.484;11.238;2022-07-30T03:11:50;97897.16;;;22.07;100.00
63907;BME280;50075;49.484;11.238;2022-07-30T03:14:16;97902.78;;;22.14;100.00
63907;BME280;50075;49.484;11.238;2022-07-30T03:16:46;97909.56;;;22.57;100.00
63907;BME280;50075;49.484;11.238;2022-07-30T03:19:14;97907.53;;;22.10;100.00
63907;BME280;50075;49.484;11.238;2022-07-30T03:21:42;97896.22;;;22.77;100.00
63907;BME280;50075;49.484;11.238;2022-07-30T03:24:10;97902.25;;;22.49;100.00
63907;BME280;50075;49.484;11.238;2022-07-30T03:26:38;97901.28;;;22.31;100.00
63907;BME280;50075;49.484;11.238;2022-07-30T03:29:05;97904.47;;;22.15;100.00
63907;BME280;50075;49.484;11.238;2022-07-30T03:31:31;97907.84;;;22.37;100.00
63907;BME280;50075;49.484;11.238;2022-07-30T03:33:57;97908.16;;;22.43;100.00
63907;BME280;50075;49.484;11.238;2022-07-30T03:36:23;97916.69;;;22.47;100.00
63907;BME280;50075;49.484;11.238;2022-07-30T03:38:50;97920.63;;;21.83;100.00
63907;BME280;50075;49.484;11.238;2022-07-30T03:41:16;97921.81;;;22.09;100.00
63907;BME280;50075;49.484;11.238;2022-07-30T03:43:42;97918.16;;;22.01;100.00
63907;BME280;50075;49.484;11.238;2022-07-30T03:46:09;97923.81;;;21.77;100.00
63907;BME280;50075;49.484;11.238;2022-07-30T03:48:35;97923.16;;;21.94;100.00
63907;BME280;50075;49.484;11.238;2022-07-30T03:51:02;97930.31;;;21.53;100.00
63907;BME280;50075;49.484;11.238;2022-07-30T03:53:28;97928.03;;;21.48;100.00
63907;BME280;50075;49.484;11.238;2022-07-30T03:55:54;97919.84;;;22.89;100.00
63907;BME280;50075;49.484;11.238;2022-07-30T03:58:20;97923.47;;;22.01;100.00
63907;BME280;50075;49.484;11.238;2022-07-30T04:00:47;97923.78;;;22.66;100.00
63907;BME280;50075;49.484;11.238;2022-07-30T04:03:23;97926.81;;;21.93;100.00
63907;BME280;50075;49.484;11.238;2022-07-30T04:05:48;97929.53;;;22.51;100.00
63907;BME280;50075;49.484;11.238;2022-07-30T04:08:13;97929.00;;;21.78;100.00
63907;BME280;50075;49.484;11.238;2022-07-30T04:10:39;97929.59;;;22.01;100.00
63907;BME280;50075;49.484;11.238;2022-07-30T04:13:04;97936.31;;;21.95;100.00
63907;BME280;50075;49.484;11.238;2022-07-30T04:15:33;97928.00;;;22.59;100.00
63907;BME280;50075;49.484;11.238;2022-07-30T04:18:03;97932.06;;;22.73;100.00
63907;BME280;50075;49.484;11.238;2022-07-30T04:20:40;97941.06;;;22.02;100.00
63907;BME280;50075;49.484;11.238;2022-07-30T04:23:06;97940.03;;;22.63;100.00
63907;BME280;50075;49.484;11.238;2022-07-30T04:25:33;97943.50;;;22.93;100.00
63907;BME280;50075;49.484;11.238;2022-07-30T04:27:59;97944.22;;;22.75;100.00
63907;BME280;50075;49.484;11.238;2022-07-30T04:30:25;97946.31;;;22.62;100.00
63907;BME280;50075;49.484;11.238;2022-07-30T04:32:51;97950.38;;;22.27;100.00
63907;BME280;50075;49.484;11.238;2022-07-30T04:35:29;97939.50;;;23.36;100.00
63907;BME280;50075;49.484;11.238;2022-07-30T04:37:55;97950.38;;;22.66;100.00
63907;BME280;50075;49.484;11.238;2022-07-30T04:40:20;97961.91;;;22.06;100.00
63907;BME280;50075;49.484;11.238;2022-07-30T04:42:45;97965.13;;;22.00;100.00
63907;BME280;50075;49.484;11.238;2022-07-30T04:45:11;97976.81;;;22.38;100.00
63907;BME280;50075;49.484;11.238;2022-07-30T04:47:36;97965.56;;;22.25;100.00
63907;BME280;50075;49.484;11.238;2022-07-30T04:50:04;97969.41;;;22.71;100.00
63907;BME280;50075;49.484;11.238;2022-07-30T04:52:30;97977.25;;;22.43;100.00
63907;BME280;50075;49.484;11.238;2022-07-30T04:55:02;97972.34;;;22.39;100.00
63907;BME280;50075;49.484;11.238;2022-07-30T04:57:28;97970.66;;;22.86;100.00
63907;BME280;50075;49.484;11.238;2022-07-30T04:59:56;97969.53;;;22.99;100.00
63907;BME280;50075;49.484;11.238;2022-07-30T05:02:21;97968.25;;;23.03;100.00
63907;BME280;50075;49.484;11.238;2022-07-30T05:04:51;97969.59;;;23.46;100.00
63907;BME280;50075;49.484;11.238;2022-07-30T05:07:18;97970.09;;;23.12;100.00
63907;BME280;50075;49.484;11.238;2022-07-30T05:09:43;97982.56;;;22.82;100.00
63907;BME280;50075;49.484;11.238;2022-07-30T05:12:09;97980.19;;;23.08;100.00
63907;BME280;50075;49.484;11.238;2022-07-30T05:14:34;97975.34;;;23.51;100.00
63907;BME280;50075;49.484;11.238;2022-07-30T05:17:00;97978.88;;;23.32;100.00
63907;BME280;50075;49.484;11.238;2022-07-30T05:19:25;97979.09;;;23.58;100.00
63907;BME280;50075;49.484;11.238;2022-07-30T05:21:51;97978.28;;;23.48;100.00
63907;BME280;50075;49.484;11.238;2022-07-30T05:24:17;97983.22;;;23.71;100.00
63907;BME280;50075;49.484;11.238;2022-07-30T05:26:42;97980.53;;;23.43;100.00
63907;BME280;50075;49.484;11.238;2022-07-30T05:29:08;98004.69;;;23.22;100.00
63907;BME280;50075;49.484;11.238;2022-07-30T05:31:33;98006.47;;;23.88;100.00
63907;BME280;50075;49.484;11.238;2022-07-30T05:33:58;97998.66;;;23.67;100.00
63907;BME280;50075;49.484;11.238;2022-07-30T05:36:24;98009.84;;;23.14;100.00
63907;BME280;50075;49.484;11.238;2022-07-30T05:38:49;98006.34;;;22.94;100.00
63907;BME280;50075;49.484;11.238;2022-07-30T05:41:15;97995.56;;;23.72;100.00
63907;BME280;50075;49.484;11.238;2022-07-30T05:43:41;98005.50;;;23.03;100.00
63907;BME280;50075;49.484;11.238;2022-07-30T05:46:06;98005.41;;;23.14;100.00
63907;BME280;50075;49.484;11.238;2022-07-30T05:48:32;98002.28;;;23.28;100.00
63907;BME280;50075;49.484;11.238;2022-07-30T05:51:00;97994.16;;;23.77;100.00
63907;BME280;50075;49.484;11.238;2022-07-30T05:53:26;97989.47;;;23.52;100.00
63907;BME280;50075;49.484;11.238;2022-07-30T05:55:51;97995.53;;;23.44;100.00
63907;BME280;50075;49.484;11.238;2022-07-30T05:58:16;97998.69;;;23.57;100.00
63907;BME280;50075;49.484;11.238;2022-07-30T06:00:42;97996.00;;;24.32;100.00
63907;BME280;50075;49.484;11.238;2022-07-30T06:03:08;97992.28;;;23.97;100.00
63907;BME280;50075;49.484;11.238;2022-07-30T06:05:33;97996.38;;;23.82;100.00
63907;BME280;50075;49.484;11.238;2022-07-30T06:07:58;98003.69;;;23.70;100.00
63907;BME280;50075;49.484;11.238;2022-07-30T06:10:24;98003.19;;;24.22;100.00
63907;BME280;50075;49.484;11.238;2022-07-30T06:12:50;97994.63;;;25.18;100.00
63907;BME280;50075;49.484;11.238;2022-07-30T06:15:15;98003.75;;;24.25;100.00
63907;BME280;50075;49.484;11.238;2022-07-30T06:17:45;98005.00;;;24.49;100.00
63907;BME280;50075;49.484;11.238;2022-07-30T06:20:12;98020.88;;;23.95;100.00
63907;BME280;50075;49.484;11.238;2022-07-30T06:22:38;98008.13;;;24.44;100.00
63907;BME280;50075;49.484;11.238;2022-07-30T06:25:04;98004.59;;;24.54;100.00
63907;BME280;50075;49.484;11.238;2022-07-30T06:27:30;97999.78;;;24.75;100.00
63907;BME280;50075;49.484;11.238;2022-07-30T06:29:58;98000.41;;;24.69;100.00
63907;BME280;50075;49.484;11.238;2022-07-30T06:32:23;98004.72;;;24.88;100.00
63907;BME280;50075;49.484;11.238;2022-07-30T06:34:49;98004.75;;;24.52;100.00
63907;BME280;50075;49.484;11.238;2022-07-30T06:37:14;98000.44;;;24.41;100.00
63907;BME280;50075;49.484;11.238;2022-07-30T06:39:40;97998.34;;;24.35;100.00
63907;BME280;50075;49.484;11.238;2022-07-30T06:42:05;97990.22;;;25.09;100.00
63907;BME280;50075;49.484;11.238;2022-07-30T06:44:30;97983.13;;;25.17;100.00
63907;BME280;50075;49.484;11.238;2022-07-30T06:46:56;97988.53;;;26.12;100.00
63907;BME280;50075;49.484;11.238;2022-07-30T06:49:21;97983.84;;;26.23;100.00
63907;BME280;50075;49.484;11.238;2022-07-30T06:51:47;97988.78;;;26.52;100.00
63907;BME280;50075;49.484;11.238;2022-07-30T06:54:12;97990.31;;;25.95;100.00
63907;BME280;50075;49.484;11.238;2022-07-30T06:56:38;97985.66;;;28.34;100.00
63907;BME280;50075;49.484;11.238;2022-07-30T06:59:03;97985.44;;;27.65;100.00
63907;BME280;50075;49.484;11.238;2022-07-30T07:01:28;97977.13;;;27.10;100.00
63907;BME280;50075;49.484;11.238;2022-07-30T07:03:54;97978.50;;;27.79;100.00
63907;BME280;50075;49.484;11.238;2022-07-30T07:06:19;97983.59;;;27.74;100.00
63907;BME280;50075;49.484;11.238;2022-07-30T07:08:44;97979.66;;;28.87;100.00
63907;BME280;50075;49.484;11.238;2022-07-30T07:11:10;97985.22;;;28.22;100.00
63907;BME280;50075;49.484;11.238;2022-07-30T07:13:35;97982.84;;;26.91;100.00
63907;BME280;50075;49.484;11.238;2022-07-30T07:16:01;97981.38;;;29.40;100.00
63907;BME280;50075;49.484;11.238;2022-07-30T07:18:26;97991.16;;;29.33;100.00
63907;BME280;50075;49.484;11.238;2022-07-30T07:20:51;97980.66;;;28.62;100.00
63907;BME280;50075;49.484;11.238;2022-07-30T07:23:17;97990.75;;;28.60;100.00
63907;BME280;50075;49.484;11.238;2022-07-30T07:25:42;97985.13;;;28.70;100.00
63907;BME280;50075;49.484;11.238;2022-07-30T07:28:07;97987.91;;;28.22;100.00
63907;BME280;50075;49.484;11.238;2022-07-30T07:30:33;97988.78;;;27.67;100.00
63907;BME280;50075;49.484;11.238;2022-07-30T07:32:58;97992.56;;;28.29;100.00
63907;BME280;50075;49.484;11.238;2022-07-30T07:35:23;97985.72;;;27.78;100.00
63907;BME280;50075;49.484;11.238;2022-07-30T07:37:49;97988.28;;;28.74;100.00
63907;BME280;50075;49.484;11.238;2022-07-30T07:40:15;97986.63;;;28.41;100.00
63907;BME280;50075;49.484;11.238;2022-07-30T07:42:40;97990.69;;;28.69;100.00
63907;BME280;50075;49.484;11.238;2022-07-30T07:45:06;98000.03;;;27.46;100.00
63907;BME280;50075;49.484;11.238;2022-07-30T07:47:44;97997.41;;;27.13;100.00
63907;BME280;50075;49.484;11.238;2022-07-30T07:50:10;98004.19;;;27.57;100.00
63907;BME280;50075;49.484;11.238;2022-07-30T07:52:36;98003.56;;;27.14;100.00
63907;BME280;50075;49.484;11.238;2022-07-30T07:55:01;98008.06;;;27.54;100.00
63907;BME280;50075;49.484;11.238;2022-07-30T07:57:26;98015.94;;;27.56;100.00
63907;BME280;50075;49.484;11.238;2022-07-30T07:59:52;98001.59;;;28.90;100.00
63907;BME280;50075;49.484;11.238;2022-07-30T08:02:19;98002.59;;;28.35;100.00
63907;BME280;50075;49.484;11.238;2022-07-30T08:04:44;97997.66;;;28.78;100.00
63907;BME280;50075;49.484;11.238;2022-07-30T08:07:11;97994.06;;;28.86;100.00
63907;BME280;50075;49.484;11.238;2022-07-30T08:09:36;97992.75;;;29.05;100.00
63907;BME280;50075;49.484;11.238;2022-07-30T08:12:02;97999.47;;;29.62;99.02
63907;BME280;50075;49.484;11.238;2022-07-30T08:14:27;97995.84;;;29.99;93.70
63907;BME280;50075;49.484;11.238;2022-07-30T08:16:52;97995.13;;;30.78;79.72
63907;BME280;50075;49.484;11.238;2022-07-30T08:19:18;98013.00;;;29.15;88.71
63907;BME280;50075;49.484;11.238;2022-07-30T08:21:43;98005.78;;;29.16;94.19
63907;BME280;50075;49.484;11.238;2022-07-30T08:24:09;98010.03;;;29.02;100.00
63907;BME280;50075;49.484;11.238;2022-07-30T08:26:34;98008.03;;;29.27;100.00
63907;BME280;50075;49.484;11.238;2022-07-30T08:28:59;98005.72;;;28.46;94.84
63907;BME280;50075;49.484;11.238;2022-07-30T08:31:25;98007.50;;;28.23;90.46
63907;BME280;50075;49.484;11.238;2022-07-30T08:33:50;98010.31;;;27.90;95.32
63907;BME280;50075;49.484;11.238;2022-07-30T08:36:15;98021.47;;;28.50;94.11
63907;BME280;50075;49.484;11.238;2022-07-30T08:38:41;98007.69;;;28.84;96.15
63907;BME280;50075;49.484;11.238;2022-07-30T08:41:06;98019.09;;;28.23;98.20
63907;BME280;50075;49.484;11.238;2022-07-30T08:43:32;98015.63;;;29.38;88.21
63907;BME280;50075;49.484;11.238;2022-07-30T08:45:59;98024.63;;;28.22;91.88
63907;BME280;50075;49.484;11.238;2022-07-30T08:48:27;98028.72;;;28.41;94.23
63907;BME280;50075;49.484;11.238;2022-07-30T08:50:53;98031.47;;;28.24;93.02
63907;BME280;50075;49.484;11.238;2022-07-30T08:53:20;98019.63;;;29.05;90.76
63907;BME280;50075;49.484;11.238;2022-07-30T08:55:46;98031.16;;;28.59;81.10
63907;BME280;50075;49.484;11.238;2022-07-30T08:58:24;98031.66;;;28.62;84.62
63907;BME280;50075;49.484;11.238;2022-07-30T09:00:52;98036.88;;;28.56;87.74
63907;BME280;50075;49.484;11.238;2022-07-30T09:03:17;98027.50;;;29.44;81.05
63907;BME280;50075;49.484;11.238;2022-07-30T09:05:42;98047.41;;;28.66;87.27
63907;BME280;50075;49.484;11.238;2022-07-30T09:08:08;98037.63;;;28.96;87.84
63907;BME280;50075;49.484;11.238;2022-07-30T09:10:33;98042.75;;;30.41;72.98
63907;BME280;50075;49.484;11.238;2022-07-30T09:12:59;98041.09;;;29.05;81.86
63907;BME280;50075;49.484;11.238;2022-07-30T09:15:24;98035.84;;;29.49;81.79
63907;BME280;50075;49.484;11.238;2022-07-30T09:18:02;98045.53;;;29.73;74.05
63907;BME280;50075;49.484;11.238;2022-07-30T09:20:31;98041.56;;;29.99;75.60
63907;BME280;50075;49.484;11.238;2022-07-30T09:22:59;98044.28;;;30.65;71.27
63907;BME280;50075;49.484;11.238;2022-07-30T09:25:40;98041.13;;;31.20;68.48
63907;BME280;50075;49.484;11.238;2022-07-30T09:28:08;98038.31;;;31.06;65.31
63907;BME280;50075;49.484;11.238;2022-07-30T09:30:51;98040.56;;;30.00;74.09
63907;BME280;50075;49.484;11.238;2022-07-30T09:33:44;98042.50;;;30.06;73.51
63907;BME280;50075;49.484;11.238;2022-07-30T09:36:13;98043.88;;;30.32;74.83
63907;BME280;50075;49.484;11.238;2022-07-30T09:38:49;98037.03;;;30.14;72.47
63907;BME280;50075;49.484;11.238;2022-07-30T09:41:20;98044.63;;;30.26;74.09
63907;BME280;50075;49.484;11.238;2022-07-30T09:43:56;98043.44;;;29.46;76.31
63907;BME280;50075;49.484;11.238;2022-07-30T09:46:21;98050.53;;;29.24;84.06
63907;BME280;50075;49.484;11.238;2022-07-30T09:48:47;98048.81;;;28.45;90.42
63907;BME280;50075;49.484;11.238;2022-07-30T09:51:13;98044.91;;;28.87;87.14
63907;BME280;50075;49.484;11.238;2022-07-30T09:53:57;98043.81;;;29.42;88.04
63907;BME280;50075;49.484;11.238;2022-07-30T09:56:27;98050.34;;;30.52;75.93
63907;BME280;50075;49.484;11.238;2022-07-30T09:58:54;98040.63;;;30.22;76.52
63907;BME280;50075;49.484;11.238;2022-07-30T10:01:20;98041.59;;;29.61;74.65
63907;BME280;50075;49.484;11.238;2022-07-30T10:03:45;98037.13;;;29.91;72.52
63907;BME280;50075;49.484;11.238;2022-07-30T10:06:11;98037.41;;;29.82;74.34
63907;BME280;50075;49.484;11.238;2022-07-30T10:11:03;98038.78;;;32.30;64.56
63907;BME280;50075;49.484;11.238;2022-07-30T10:13:28;98036.44;;;31.85;61.02
63907;BME280;50075;49.484;11.238;2022-07-30T10:15:54;98039.84;;;32.35;60.71
63907;BME280;50075;49.484;11.238;2022-07-30T10:18:19;98038.88;;;31.02;61.52
63907;BME280;50075;49.484;11.238;2022-07-30T10:20:45;98039.69;;;33.38;54.12
63907;BME280;50075;49.484;11.238;2022-07-30T10:23:11;98030.09;;;33.76;51.86
63907;BME280;50075;49.484;11.238;2022-07-30T10:25:37;98032.53;;;34.56;47.65
63907;BME280;50075;49.484;11.238;2022-07-30T10:28:03;98027.75;;;32.93;51.00
63907;BME280;50075;49.484;11.238;2022-07-30T10:30:30;98028.13;;;34.62;48.07
63907;BME280;50075;49.484;11.238;2022-07-30T10:32:58;98034.09;;;31.75;55.18
63907;BME280;50075;49.484;11.238;2022-07-30T10:35:23;98029.63;;;30.68;56.31
63907;BME280;50075;49.484;11.238;2022-07-30T10:37:50;98032.69;;;31.51;55.14
63907;BME280;50075;49.484;11.238;2022-07-30T10:48:26;98029.22;;;30.49;58.78
63907;BME280;50075;49.484;11.238;2022-07-30T10:50:55;98028.81;;;32.30;51.66
63907;BME280;50075;49.484;11.238;2022-07-30T10:53:40;98018.19;;;32.22;51.21
63907;BME280;50075;49.484;11.238;2022-07-30T10:56:18;98023.69;;;32.49;46.59
63907;BME280;50075;49.484;11.238;2022-07-30T11:04:22;98022.19;;;30.91;50.38
63907;BME280;50075;49.484;11.238;2022-07-30T11:06:49;98023.88;;;30.92;54.13
63907;BME280;50075;49.484;11.238;2022-07-30T11:11:59;98022.69;;;30.59;53.16
63907;BME280;50075;49.484;11.238;2022-07-30T11:17:10;98002.81;;;33.77;46.16
63907;BME280;50075;49.484;11.238;2022-07-30T11:22:30;98013.59;;;32.16;49.03
63907;BME280;50075;49.484;11.238;2022-07-30T11:25:00;98010.06;;;31.80;49.79
63907;BME280;50075;49.484;11.238;2022-07-30T11:27:43;98005.91;;;30.42;53.47
63907;BME280;50075;49.484;11.238;2022-07-30T11:32:45;98009.81;;;29.65;52.46
63907;BME280;50075;49.484;11.238;2022-07-30T11:35:21;98006.53;;;30.59;50.90
63907;BME280;50075;49.484;11.238;2022-07-30T11:38:11;98006.97;;;29.96;56.00
63907;BME280;50075;49.484;11.238;2022-07-30T11:43:28;98015.44;;;30.08;58.18
63907;BME280;50075;49.484;11.238;2022-07-30T11:48:32;98024.00;;;29.73;62.47
63907;BME280;50075;49.484;11.238;2022-07-30T11:50:57;98018.72;;;28.89;65.11
63907;BME280;50075;49.484;11.238;2022-07-30T11:53:23;98018.03;;;29.33;64.53
63907;BME280;50075;49.484;11.238;2022-07-30T11:55:51;98024.69;;;28.99;62.22
63907;BME280;50075;49.484;11.238;2022-07-30T11:58:37;98023.63;;;29.47;60.87
63907;BME280;50075;49.484;11.238;2022-07-30T12:01:04;98029.78;;;29.17;61.85
63907;BME280;50075;49.484;11.238;2022-07-30T12:03:30;98028.75;;;28.95;58.55
63907;BME280;50075;49.484;11.238;2022-07-30T12:06:07;98025.28;;;29.48;59.32
63907;BME280;50075;49.484;11.238;2022-07-30T12:08:43;98013.47;;;30.16;55.75
63907;BME280;50075;49.484;11.238;2022-07-30T12:11:09;98016.63;;;30.71;55.58
63907;BME280;50075;49.484;11.238;2022-07-30T12:13:35;98012.59;;;32.23;51.43
63907;BME280;50075;49.484;11.238;2022-07-30T12:16:07;98023.91;;;31.21;53.06
63907;BME280;50075;49.484;11.238;2022-07-30T12:18:33;98013.28;;;31.12;50.99
63907;BME280;50075;49.484;11.238;2022-07-30T12:21:00;98010.63;;;30.76;52.56
63907;BME280;50075;49.484;11.238;2022-07-30T12:23:27;97992.50;;;32.39;49.96
63907;BME280;50075;49.484;11.238;2022-07-30T12:25:53;98001.47;;;31.98;50.55
63907;BME280;50075;49.484;11.238;2022-07-30T12:28:22;98001.50;;;31.42;48.00
63907;BME280;50075;49.484;11.238;2022-07-30T12:30:48;98006.81;;;31.28;48.54
63907;BME280;50075;49.484;11.238;2022-07-30T12:33:14;97996.28;;;30.69;50.66
63907;BME280;50075;49.484;11.238;2022-07-30T12:35:47;98006.97;;;30.84;53.02
63907;BME280;50075;49.484;11.238;2022-07-30T12:38:14;98013.28;;;30.33;53.34
63907;BME280;50075;49.484;11.238;2022-07-30T12:43:14;98007.97;;;30.40;56.44
63907;BME280;50075;49.484;11.238;2022-07-30T12:45:40;98009.00;;;29.64;58.45
63907;BME280;50075;49.484;11.238;2022-07-30T12:48:09;98007.66;;;29.98;57.60
63907;BME280;50075;49.484;11.238;2022-07-30T12:50:35;98007.75;;;29.75;61.39
63907;BME280;50075;49.484;11.238;2022-07-30T12:53:00;98001.06;;;29.86;58.92
63907;BME280;50075;49.484;11.238;2022-07-30T12:55:34;98005.88;;;30.35;59.60
63907;BME280;50075;49.484;11.238;2022-07-30T12:58:04;98000.81;;;30.32;59.69
63907;BME280;50075;49.484;11.238;2022-07-30T13:02:55;97998.00;;;30.04;59.42
63907;BME280;50075;49.484;11.238;2022-07-30T13:05:42;97997.72;;;30.86;54.10
63907;BME280;50075;49.484;11.238;2022-07-30T13:08:08;97984.75;;;31.18;51.98
63907;BME280;50075;49.484;11.238;2022-07-30T13:10:33;97989.78;;;30.42;52.73
63907;BME280;50075;49.484;11.238;2022-07-30T13:12:59;97983.75;;;31.89;49.77
63907;BME280;50075;49.484;11.238;2022-07-30T13:15:24;97980.66;;;31.92;51.11
63907;BME280;50075;49.484;11.238;2022-07-30T13:17:50;97981.03;;;31.19;48.76
63907;BME280;50075;49.484;11.238;2022-07-30T13:20:16;97986.03;;;30.58;50.43
63907;BME280;50075;49.484;11.238;2022-07-30T13:22:42;97989.81;;;32.46;47.97
63907;BME280;50075;49.484;11.238;2022-07-30T13:25:08;97974.34;;;32.81;48.61